sensor_id;sensor_type;location;lat;lon;timestamp;temperature;humidity
3770;DHT22;1900;48.890;9.190;2022-11-18T00:01:46;14.20;63.30
3770;DHT22;1900;48.890;9.190;2022-11-18T00:04:12;14.20;63.30
3770;DHT22;1900;48.890;9.190;2022-11-18T00:06:37;14.20;63.40
3770;DHT22;1900;48.890;9.190;2022-11-18T00:09:03;14.20;63.30
3770;DHT22;1900;48.890;9.190;2022-11-18T00:11:29;14.20;63.30
3770;DHT22;1900;48.890;9.190;2022-11-18T00:14:23;14.20;63.30
3770;DHT22;1900;48.890;9.190;2022-11-18T00:16:50;14.20;63.30
3770;DHT22;1900;48.890;9.190;2022-11-18T00:19:18;14.20;63.40
3770;DHT22;1900;48.890;9.190;2022-11-18T00:21:44;14.20;63.40
3770;DHT22;1900;48.890;9.190;2022-11-18T00:24:09;14.20;63.40
3770;DHT22;1900;48.890;9.190;2022-11-18T00:26:35;14.20;63.50
3770;DHT22;1900;48.890;9.190;2022-11-18T00:29:02;14.20;63.50
3770;DHT22;1900;48.890;9.190;2022-11-18T00:31:27;14.20;63.50
3770;DHT22;1900;48.890;9.190;2022-11-18T00:33:53;14.20;63.50
3770;DHT22;1900;48.890;9.190;2022-11-18T00:36:19;14.20;63.50
3770;DHT22;1900;48.890;9.190;2022-11-18T00:38:45;14.20;63.50
3770;DHT22;1900;48.890;9.190;2022-11-18T00:41:13;14.20;63.40
3770;DHT22;1900;48.890;9.190;2022-11-18T00:43:40;14.20;63.40
3770;DHT22;1900;48.890;9.190;2022-11-18T00:46:07;14.20;63.50
3770;DHT22;1900;48.890;9.190;2022-11-18T00:48:33;14.20;63.50
3770;DHT22;1900;48.890;9.190;2022-11-18T00:51:13;14.30;63.60
3770;DHT22;1900;48.890;9.190;2022-11-18T00:53:39;14.20;63.50
3770;DHT22;1900;48.890;9.190;2022-11-18T00:56:05;14.30;63.60
3770;DHT22;1900;48.890;9.190;2022-11-18T00:58:31;14.20;63.40
3770;DHT22;1900;48.890;9.190;2022-11-18T01:00:57;14.20;63.40
3770;DHT22;1900;48.890;9.190;2022-11-18T01:03:23;14.20;63.30
3770;DHT22;1900;48.890;9.190;2022-11-18T01:05:50;14.20;63.30
3770;DHT22;1900;48.890;9.190;2022-11-18T01:08:16;14.20;63.30
3770;DHT22;1900;48.890;9.190;2022-11-18T01:10:45;14.20;63.30
3770;DHT22;1900;48.890;9.190;2022-11-18T01:13:14;14.20;63.30
3770;DHT22;1900;48.890;9.190;2022-11-18T01:15:55;14.20;63.40
3770;DHT22;1900;48.890;9.190;2022-11-18T01:18:24;14.20;63.40
3770;DHT22;1900;48.890;9.190;2022-11-18T01:20:50;14.10;63.30
3770;DHT22;1900;48.890;9.190;2022-11-18T01:23:17;14.10;63.30
3770;DHT22;1900;48.890;9.190;2022-11-18T01:25:44;14.10;63.40
3770;DHT22;1900;48.890;9.190;2022-11-18T01:28:11;14.10;63.30
3770;DHT22;1900;48.890;9.190;2022-11-18T01:30:38;14.10;63.40
3770;DHT22;1900;48.890;9.190;2022-11-18T01:33:05;14.10;63.40
3770;DHT22;1900;48.890;9.190;2022-11-18T01:35:39;14.10;63.40
3770;DHT22;1900;48.890;9.190;2022-11-18T01:38:05;14.10;63.50
3770;DHT22;1900;48.890;9.190;2022-11-18T01:40:32;14.10;63.50
3770;DHT22;1900;48.890;9.190;2022-11-18T01:42:58;14.10;63.50
3770;DHT22;1900;48.890;9.190;2022-11-18T01:45:37;14.10;63.50
3770;DHT22;1900;48.890;9.190;2022-11-18T01:48:11;14.10;63.60
3770;DHT22;1900;48.890;9.190;2022-11-18T01:50:42;14.10;63.70
3770;DHT22;1900;48.890;9.190;2022-11-18T01:53:15;14.10;63.60
3770;DHT22;1900;48.890;9.190;2022-11-18T01:55:44;14.10;63.60
3770;DHT22;1900;48.890;9.190;2022-11-18T02:00:46;14.10;64.40
3770;DHT22;1900;48.890;9.190;2022-11-18T02:03:12;14.10;63.60
3770;DHT22;1900;48.890;9.190;2022-11-18T02:05:39;14.10;63.70
3770;DHT22;1900;48.890;9.190;2022-11-18T02:08:06;14.10;63.70
3770;DHT22;1900;48.890;9.190;2022-11-18T02:10:32;14.10;63.70
3770;DHT22;1900;48.890;9.190;2022-11-18T02:12:58;14.10;63.60
3770;DHT22;1900;48.890;9.190;2022-11-18T02:16:05;14.10;63.80
3770;DHT22;1900;48.890;9.190;2022-11-18T02:24:25;14.10;63.60
3770;DHT22;1900;48.890;9.190;2022-11-18T02:29:31;14.00;63.60
3770;DHT22;1900;48.890;9.190;2022-11-18T02:34:47;14.00;63.60
3770;DHT22;1900;48.890;9.190;2022-11-18T02:37:33;14.00;63.70
3770;DHT22;1900;48.890;9.190;2022-11-18T02:42:31;14.00;63.70
3770;DHT22;1900;48.890;9.190;2022-11-18T02:45:02;14.00;63.70
3770;DHT22;1900;48.890;9.190;2022-11-18T02:47:30;14.00;63.80
3770;DHT22;1900;48.890;9.190;2022-11-18T02:50:03;14.00;63.80
3770;DHT22;1900;48.890;9.190;2022-11-18T02:52:31;14.00;63.90
3770;DHT22;1900;48.890;9.190;2022-11-18T02:54:59;14.00;63.90
3770;DHT22;1900;48.890;9.190;2022-11-18T02:57:27;14.00;63.90
3770;DHT22;1900;48.890;9.190;2022-11-18T02:59:55;14.10;64.10
3770;DHT22;1900;48.890;9.190;2022-11-18T03:02:20;14.10;64.10
3770;DHT22;1900;48.890;9.190;2022-11-18T03:04:48;14.10;64.10
3770;DHT22;1900;48.890;9.190;2022-11-18T03:07:21;14.10;64.20
3770;DHT22;1900;48.890;9.190;2022-11-18T03:09:51;14.10;64.10
3770;DHT22;1900;48.890;9.190;2022-11-18T03:22:41;14.20;64.10
3770;DHT22;1900;48.890;9.190;2022-11-18T03:25:15;14.10;63.80
3770;DHT22;1900;48.890;9.190;2022-11-18T03:30:21;14.10;63.90
3770;DHT22;1900;48.890;9.190;2022-11-18T03:33:01;14.10;64.00
3770;DHT22;1900;48.890;9.190;2022-11-18T03:35:30;14.10;64.10
3770;DHT22;1900;48.890;9.190;2022-11-18T03:38:03;14.10;64.10
3770;DHT22;1900;48.890;9.190;2022-11-18T03:40:30;14.10;64.10
3770;DHT22;1900;48.890;9.190;2022-11-18T03:43:10;14.10;64.10
3770;DHT22;1900;48.890;9.190;2022-11-18T03:45:44;14.10;64.10
3770;DHT22;1900;48.890;9.190;2022-11-18T03:48:13;14.10;64.10
3770;DHT22;1900;48.890;9.190;2022-11-18T03:50:50;14.10;64.10
3770;DHT22;1900;48.890;9.190;2022-11-18T03:53:18;14.10;64.10
3770;DHT22;1900;48.890;9.190;2022-11-18T03:55:49;14.10;64.10
3770;DHT22;1900;48.890;9.190;2022-11-18T03:58:29;14.10;64.20
3770;DHT22;1900;48.890;9.190;2022-11-18T04:01:08;14.10;64.20
3770;DHT22;1900;48.890;9.190;2022-11-18T04:03:35;14.10;64.20
3770;DHT22;1900;48.890;9.190;2022-11-18T04:07:25;14.10;64.20
3770;DHT22;1900;48.890;9.190;2022-11-18T04:09:24;14.10;64.30
3770;DHT22;1900;48.890;9.190;2022-11-18T04:12:01;14.10;64.20
3770;DHT22;1900;48.890;9.190;2022-11-18T04:14:28;14.10;64.20
3770;DHT22;1900;48.890;9.190;2022-11-18T04:16:55;14.10;64.20
3770;DHT22;1900;48.890;9.190;2022-11-18T04:19:20;14.10;64.20
3770;DHT22;1900;48.890;9.190;2022-11-18T04:21:47;14.10;64.10
3770;DHT22;1900;48.890;9.190;2022-11-18T04:24:14;14.10;64.10
3770;DHT22;1900;48.890;9.190;2022-11-18T04:26:39;14.10;64.10
3770;DHT22;1900;48.890;9.190;2022-11-18T04:29:05;14.10;64.10
3770;DHT22;1900;48.890;9.190;2022-11-18T04:31:31;14.10;64.10
3770;DHT22;1900;48.890;9.190;2022-11-18T04:33:56;14.00;64.00
3770;DHT22;1900;48.890;9.190;2022-11-18T04:36:22;14.10;64.10
3770;DHT22;1900;48.890;9.190;2022-11-18T04:38:48;14.10;64.10
3770;DHT22;1900;48.890;9.190;2022-11-18T04:41:13;14.10;64.10
3770;DHT22;1900;48.890;9.190;2022-11-18T04:43:40;14.10;64.10
3770;DHT22;1900;48.890;9.190;2022-11-18T04:46:05;14.00;64.00
3770;DHT22;1900;48.890;9.190;2022-11-18T04:48:31;14.00;63.90
3770;DHT22;1900;48.890;9.190;2022-11-18T04:50:57;14.00;63.90
3770;DHT22;1900;48.890;9.190;2022-11-18T04:53:26;14.00;63.90
3770;DHT22;1900;48.890;9.190;2022-11-18T04:55:52;14.00;63.90
3770;DHT22;1900;48.890;9.190;2022-11-18T04:58:18;14.00;63.90
3770;DHT22;1900;48.890;9.190;2022-11-18T05:00:43;14.00;64.10
3770;DHT22;1900;48.890;9.190;2022-11-18T05:03:10;14.00;64.00
3770;DHT22;1900;48.890;9.190;2022-11-18T05:05:36;14.00;64.00
3770;DHT22;1900;48.890;9.190;2022-11-18T05:08:01;13.90;63.90
3770;DHT22;1900;48.890;9.190;2022-11-18T05:10:27;13.90;63.90
3770;DHT22;1900;48.890;9.190;2022-11-18T05:12:53;13.90;63.80
3770;DHT22;1900;48.890;9.190;2022-11-18T05:15:20;13.90;63.80
3770;DHT22;1900;48.890;9.190;2022-11-18T05:17:48;13.90;63.80
3770;DHT22;1900;48.890;9.190;2022-11-18T05:20:15;13.90;63.80
3770;DHT22;1900;48.890;9.190;2022-11-18T05:22:40;13.90;63.80
3770;DHT22;1900;48.890;9.190;2022-11-18T05:25:08;13.90;63.80
3770;DHT22;1900;48.890;9.190;2022-11-18T05:27:33;13.90;63.90
3770;DHT22;1900;48.890;9.190;2022-11-18T05:29:59;13.80;63.70
3770;DHT22;1900;48.890;9.190;2022-11-18T05:32:25;13.80;63.70
3770;DHT22;1900;48.890;9.190;2022-11-18T05:34:50;13.80;63.70
3770;DHT22;1900;48.890;9.190;2022-11-18T05:37:19;13.80;63.70
3770;DHT22;1900;48.890;9.190;2022-11-18T05:39:44;13.80;63.80
3770;DHT22;1900;48.890;9.190;2022-11-18T05:42:10;13.80;63.80
3770;DHT22;1900;48.890;9.190;2022-11-18T05:44:54;13.80;63.80
3770;DHT22;1900;48.890;9.190;2022-11-18T05:47:20;13.80;63.80
3770;DHT22;1900;48.890;9.190;2022-11-18T05:49:46;13.80;63.90
3770;DHT22;1900;48.890;9.190;2022-11-18T05:52:11;13.80;63.90
3770;DHT22;1900;48.890;9.190;2022-11-18T05:54:40;13.80;63.90
3770;DHT22;1900;48.890;9.190;2022-11-18T05:57:06;13.80;63.90
3770;DHT22;1900;48.890;9.190;2022-11-18T05:59:32;13.80;63.80
3770;DHT22;1900;48.890;9.190;2022-11-18T06:02:15;13.80;63.90
3770;DHT22;1900;48.890;9.190;2022-11-18T06:04:49;13.80;63.90
3770;DHT22;1900;48.890;9.190;2022-11-18T06:07:18;13.70;63.80
3770;DHT22;1900;48.890;9.190;2022-11-18T06:09:48;13.70;63.90
3770;DHT22;1900;48.890;9.190;2022-11-18T06:12:17;13.70;63.80
3770;DHT22;1900;48.890;9.190;2022-11-18T06:14:50;13.70;63.80
3770;DHT22;1900;48.890;9.190;2022-11-18T06:17:22;13.70;63.80
3770;DHT22;1900;48.890;9.190;2022-11-18T06:19:49;13.70;63.80
3770;DHT22;1900;48.890;9.190;2022-11-18T06:22:15;13.70;63.70
3770;DHT22;1900;48.890;9.190;2022-11-18T06:24:41;13.70;63.80
3770;DHT22;1900;48.890;9.190;2022-11-18T06:27:07;13.70;63.70
3770;DHT22;1900;48.890;9.190;2022-11-18T06:29:33;13.70;63.80
3770;DHT22;1900;48.890;9.190;2022-11-18T06:31:59;13.70;63.80
3770;DHT22;1900;48.890;9.190;2022-11-18T06:34:25;13.70;63.80
3770;DHT22;1900;48.890;9.190;2022-11-18T06:36:50;13.70;64.00
3770;DHT22;1900;48.890;9.190;2022-11-18T06:39:16;13.70;63.90
3770;DHT22;1900;48.890;9.190;2022-11-18T06:41:42;13.70;63.90
3770;DHT22;1900;48.890;9.190;2022-11-18T06:44:09;13.70;63.90
3770;DHT22;1900;48.890;9.190;2022-11-18T06:46:35;13.70;63.90
3770;DHT22;1900;48.890;9.190;2022-11-18T06:49:19;13.70;63.90
3770;DHT22;1900;48.890;9.190;2022-11-18T06:51:45;13.70;63.90
3770;DHT22;1900;48.890;9.190;2022-11-18T06:54:11;13.70;64.00
3770;DHT22;1900;48.890;9.190;2022-11-18T06:56:37;13.80;64.10
3770;DHT22;1900;48.890;9.190;2022-11-18T06:59:02;13.70;64.70
3770;DHT22;1900;48.890;9.190;2022-11-18T07:01:31;13.80;64.10
3770;DHT22;1900;48.890;9.190;2022-11-18T07:03:59;13.80;64.10
3770;DHT22;1900;48.890;9.190;2022-11-18T07:06:30;13.80;64.10
3770;DHT22;1900;48.890;9.190;2022-11-18T07:08:59;13.80;64.10
3770;DHT22;1900;48.890;9.190;2022-11-18T07:11:25;13.80;64.10
3770;DHT22;1900;48.890;9.190;2022-11-18T07:13:52;13.70;64.10
3770;DHT22;1900;48.890;9.190;2022-11-18T07:16:23;13.80;64.10
3770;DHT22;1900;48.890;9.190;2022-11-18T07:18:50;13.80;64.20
3770;DHT22;1900;48.890;9.190;2022-11-18T07:21:24;13.80;64.20
3770;DHT22;1900;48.890;9.190;2022-11-18T07:23:51;13.80;64.10
3770;DHT22;1900;48.890;9.190;2022-11-18T07:26:18;13.80;64.10
3770;DHT22;1900;48.890;9.190;2022-11-18T07:28:44;13.80;64.10
3770;DHT22;1900;48.890;9.190;2022-11-18T07:31:15;13.80;64.10
3770;DHT22;1900;48.890;9.190;2022-11-18T07:33:42;13.80;64.00
3770;DHT22;1900;48.890;9.190;2022-11-18T07:36:10;13.80;64.00
3770;DHT22;1900;48.890;9.190;2022-11-18T07:38:36;13.80;64.00
3770;DHT22;1900;48.890;9.190;2022-11-18T07:41:03;13.80;64.00
3770;DHT22;1900;48.890;9.190;2022-11-18T07:43:31;13.80;64.10
3770;DHT22;1900;48.890;9.190;2022-11-18T07:45:56;13.80;64.10
3770;DHT22;1900;48.890;9.190;2022-11-18T07:48:22;13.80;64.20
3770;DHT22;1900;48.890;9.190;2022-11-18T07:50:48;13.80;64.10
3770;DHT22;1900;48.890;9.190;2022-11-18T07:53:13;13.80;64.10
3770;DHT22;1900;48.890;9.190;2022-11-18T07:55:39;13.80;64.10
3770;DHT22;1900;48.890;9.190;2022-11-18T07:58:05;13.80;64.10
3770;DHT22;1900;48.890;9.190;2022-11-18T08:00:30;13.80;64.00
3770;DHT22;1900;48.890;9.190;2022-11-18T08:02:56;13.80;64.00
3770;DHT22;1900;48.890;9.190;2022-11-18T08:05:21;13.80;64.00
3770;DHT22;1900;48.890;9.190;2022-11-18T08:07:47;13.80;64.00
3770;DHT22;1900;48.890;9.190;2022-11-18T08:10:13;13.80;64.00
3770;DHT22;1900;48.890;9.190;2022-11-18T08:12:38;13.80;64.10
3770;DHT22;1900;48.890;9.190;2022-11-18T08:15:04;13.80;64.10
3770;DHT22;1900;48.890;9.190;2022-11-18T08:17:31;13.80;64.00
3770;DHT22;1900;48.890;9.190;2022-11-18T08:19:57;13.80;64.10
3770;DHT22;1900;48.890;9.190;2022-11-18T08:22:22;13.80;64.20
3770;DHT22;1900;48.890;9.190;2022-11-18T08:24:48;13.80;64.20
3770;DHT22;1900;48.890;9.190;2022-11-18T08:27:14;13.70;64.10
3770;DHT22;1900;48.890;9.190;2022-11-18T08:29:39;13.80;64.20
3770;DHT22;1900;48.890;9.190;2022-11-18T08:32:05;13.80;64.30
3770;DHT22;1900;48.890;9.190;2022-11-18T08:34:31;13.80;64.30
3770;DHT22;1900;48.890;9.190;2022-11-18T08:36:57;13.80;64.40
3770;DHT22;1900;48.890;9.190;2022-11-18T08:39:23;13.80;64.50
3770;DHT22;1900;48.890;9.190;2022-11-18T08:41:48;13.80;64.40
3770;DHT22;1900;48.890;9.190;2022-11-18T08:44:15;13.80;64.40
3770;DHT22;1900;48.890;9.190;2022-11-18T08:46:45;13.80;64.40
3770;DHT22;1900;48.890;9.190;2022-11-18T08:49:11;13.80;64.40
3770;DHT22;1900;48.890;9.190;2022-11-18T08:51:36;13.80;64.50
3770;DHT22;1900;48.890;9.190;2022-11-18T08:54:02;13.80;64.60
3770;DHT22;1900;48.890;9.190;2022-11-18T08:56:28;13.80;64.50
3770;DHT22;1900;48.890;9.190;2022-11-18T08:58:55;13.90;64.60
3770;DHT22;1900;48.890;9.190;2022-11-18T09:01:20;13.80;64.60
3770;DHT22;1900;48.890;9.190;2022-11-18T09:03:46;13.90;64.50
3770;DHT22;1900;48.890;9.190;2022-11-18T09:06:15;13.90;64.40
3770;DHT22;1900;48.890;9.190;2022-11-18T09:08:41;13.90;64.50
3770;DHT22;1900;48.890;9.190;2022-11-18T09:11:13;13.90;64.60
3770;DHT22;1900;48.890;9.190;2022-11-18T09:13:39;13.80;64.70
3770;DHT22;1900;48.890;9.190;2022-11-18T09:16:05;13.80;64.70
3770;DHT22;1900;48.890;9.190;2022-11-18T09:18:32;13.90;64.70
3770;DHT22;1900;48.890;9.190;2022-11-18T09:21:00;13.90;65.40
3770;DHT22;1900;48.890;9.190;2022-11-18T09:23:27;13.90;64.90
3770;DHT22;1900;48.890;9.190;2022-11-18T09:26:07;13.90;64.80
3770;DHT22;1900;48.890;9.190;2022-11-18T09:28:34;13.90;64.80
3770;DHT22;1900;48.890;9.190;2022-11-18T09:31:09;13.90;64.80
3770;DHT22;1900;48.890;9.190;2022-11-18T09:33:35;13.90;64.80
3770;DHT22;1900;48.890;9.190;2022-11-18T09:36:10;14.00;65.00
3770;DHT22;1900;48.890;9.190;2022-11-18T09:38:36;14.00;65.00
3770;DHT22;1900;48.890;9.190;2022-11-18T09:47:46;14.00;65.10
3770;DHT22;1900;48.890;9.190;2022-11-18T09:49:42;14.00;65.10
3770;DHT22;1900;48.890;9.190;2022-11-18T09:54:43;14.00;65.40
3770;DHT22;1900;48.890;9.190;2022-11-18T09:57:18;14.10;65.50
3770;DHT22;1900;48.890;9.190;2022-11-18T09:59:45;14.10;65.50
3770;DHT22;1900;48.890;9.190;2022-11-18T10:05:21;14.10;65.30
3770;DHT22;1900;48.890;9.190;2022-11-18T10:07:53;14.10;65.30
3770;DHT22;1900;48.890;9.190;2022-11-18T10:10:26;14.10;65.10
3770;DHT22;1900;48.890;9.190;2022-11-18T10:18:41;14.10;65.20
3770;DHT22;1900;48.890;9.190;2022-11-18T10:22:02;14.10;65.40
3770;DHT22;1900;48.890;9.190;2022-11-18T10:24:41;14.10;65.40
3770;DHT22;1900;48.890;9.190;2022-11-18T10:27:12;14.10;65.50
3770;DHT22;1900;48.890;9.190;2022-11-18T10:29:38;14.10;65.30
3770;DHT22;1900;48.890;9.190;2022-11-18T10:32:13;14.10;65.30
3770;DHT22;1900;48.890;9.190;2022-11-18T10:35:18;14.10;65.50
3770;DHT22;1900;48.890;9.190;2022-11-18T10:37:59;14.20;65.70
3770;DHT22;1900;48.890;9.190;2022-11-18T10:40:29;14.20;65.70
3770;DHT22;1900;48.890;9.190;2022-11-18T10:42:55;14.20;65.70
3770;DHT22;1900;48.890;9.190;2022-11-18T10:50:48;14.30;66.00
3770;DHT22;1900;48.890;9.190;2022-11-18T10:58:25;14.40;66.20
3770;DHT22;1900;48.890;9.190;2022-11-18T11:03:40;14.40;66.40
3770;DHT22;1900;48.890;9.190;2022-11-18T11:08:51;14.50;66.40
3770;DHT22;1900;48.890;9.190;2022-11-18T11:11:33;14.50;66.30
3770;DHT22;1900;48.890;9.190;2022-11-18T11:16:47;14.50;66.30
3770;DHT22;1900;48.890;9.190;2022-11-18T11:19:18;14.50;66.30
3770;DHT22;1900;48.890;9.190;2022-11-18T11:21:45;14.50;66.30
3770;DHT22;1900;48.890;9.190;2022-11-18T11:24:11;14.60;66.40
3770;DHT22;1900;48.890;9.190;2022-11-18T11:40:17;14.70;66.60
3770;DHT22;1900;48.890;9.190;2022-11-18T11:54:05;14.80;66.70
3770;DHT22;1900;48.890;9.190;2022-11-18T11:56:48;14.80;66.70
3770;DHT22;1900;48.890;9.190;2022-11-18T12:06:52;14.90;67.10
3770;DHT22;1900;48.890;9.190;2022-11-18T12:13:10;15.00;67.20
3770;DHT22;1900;48.890;9.190;2022-11-18T12:15:57;15.00;67.10
3770;DHT22;1900;48.890;9.190;2022-11-18T12:18:44;15.10;67.20
3770;DHT22;1900;48.890;9.190;2022-11-18T12:26:45;15.10;67.20
3770;DHT22;1900;48.890;9.190;2022-11-18T12:31:48;15.20;67.30
3770;DHT22;1900;48.890;9.190;2022-11-18T12:34:39;15.20;67.00
3770;DHT22;1900;48.890;9.190;2022-11-18T12:42:46;15.20;66.70
3770;DHT22;1900;48.890;9.190;2022-11-18T12:48:35;15.20;67.00
3770;DHT22;1900;48.890;9.190;2022-11-18T12:53:40;15.30;67.10
3770;DHT22;1900;48.890;9.190;2022-11-18T12:59:01;15.30;67.10
3770;DHT22;1900;48.890;9.190;2022-11-18T13:01:32;15.30;67.00
3770;DHT22;1900;48.890;9.190;2022-11-18T13:04:15;15.30;66.90
3770;DHT22;1900;48.890;9.190;2022-11-18T13:06:41;15.30;66.90
3770;DHT22;1900;48.890;9.190;2022-11-18T13:09:22;15.30;66.70
3770;DHT22;1900;48.890;9.190;2022-11-18T13:14:24;15.20;66.60
3770;DHT22;1900;48.890;9.190;2022-11-18T13:17:35;15.20;66.60
3770;DHT22;1900;48.890;9.190;2022-11-18T13:20:30;15.20;66.60
3770;DHT22;1900;48.890;9.190;2022-11-18T13:23:26;15.20;66.70
3770;DHT22;1900;48.890;9.190;2022-11-18T13:34:24;15.20;66.50
3770;DHT22;1900;48.890;9.190;2022-11-18T13:36:52;15.20;66.50
3770;DHT22;1900;48.890;9.190;2022-11-18T13:39:22;15.10;66.40
3770;DHT22;1900;48.890;9.190;2022-11-18T13:42:15;15.10;66.60
3770;DHT22;1900;48.890;9.190;2022-11-18T13:44:45;15.20;66.80
3770;DHT22;1900;48.890;9.190;2022-11-18T13:52:12;15.30;67.20
3770;DHT22;1900;48.890;9.190;2022-11-18T13:54:39;15.40;67.50
3770;DHT22;1900;48.890;9.190;2022-11-18T13:57:05;15.50;67.80
3770;DHT22;1900;48.890;9.190;2022-11-18T13:59:31;15.60;67.90
3770;DHT22;1900;48.890;9.190;2022-11-18T14:01:59;15.60;67.90
3770;DHT22;1900;48.890;9.190;2022-11-18T14:04:27;15.70;67.80
3770;DHT22;1900;48.890;9.190;2022-11-18T14:07:27;15.70;67.80
3770;DHT22;1900;48.890;9.190;2022-11-18T14:09:57;15.80;67.50
3770;DHT22;1900;48.890;9.190;2022-11-18T14:12:28;15.80;67.30
3770;DHT22;1900;48.890;9.190;2022-11-18T14:17:49;15.70;67.00
3770;DHT22;1900;48.890;9.190;2022-11-18T14:20:16;15.70;67.00
3770;DHT22;1900;48.890;9.190;2022-11-18T14:22:42;15.70;66.90
3770;DHT22;1900;48.890;9.190;2022-11-18T14:25:22;15.70;66.90
3770;DHT22;1900;48.890;9.190;2022-11-18T14:27:50;15.70;66.80
3770;DHT22;1900;48.890;9.190;2022-11-18T14:30:36;15.70;66.70
3770;DHT22;1900;48.890;9.190;2022-11-18T14:35:31;15.60;66.50
3770;DHT22;1900;48.890;9.190;2022-11-18T14:37:57;15.60;66.50
3770;DHT22;1900;48.890;9.190;2022-11-18T14:40:23;15.50;66.30
3770;DHT22;1900;48.890;9.190;2022-11-18T14:42:48;15.50;66.30
3770;DHT22;1900;48.890;9.190;2022-11-18T14:45:14;15.50;66.30
3770;DHT22;1900;48.890;9.190;2022-11-18T14:47:40;15.40;66.30
3770;DHT22;1900;48.890;9.190;2022-11-18T14:50:12;15.40;66.30
3770;DHT22;1900;48.890;9.190;2022-11-18T14:52:38;15.40;66.40
3770;DHT22;1900;48.890;9.190;2022-11-18T14:55:04;15.40;66.40
3770;DHT22;1900;48.890;9.190;2022-11-18T14:57:30;15.40;66.30
3770;DHT22;1900;48.890;9.190;2022-11-18T14:59:55;15.40;66.30
3770;DHT22;1900;48.890;9.190;2022-11-18T15:02:21;15.40;66.30
3770;DHT22;1900;48.890;9.190;2022-11-18T15:04:47;15.30;66.30
3770;DHT22;1900;48.890;9.190;2022-11-18T15:07:15;15.30;66.40
3770;DHT22;1900;48.890;9.190;2022-11-18T15:09:41;15.30;66.30
3770;DHT22;1900;48.890;9.190;2022-11-18T15:12:07;15.30;66.20
3770;DHT22;1900;48.890;9.190;2022-11-18T15:14:33;15.30;66.10
3770;DHT22;1900;48.890;9.190;2022-11-18T15:17:00;15.30;66.10
3770;DHT22;1900;48.890;9.190;2022-11-18T15:19:27;15.30;66.10
3770;DHT22;1900;48.890;9.190;2022-11-18T15:21:52;15.20;65.90
3770;DHT22;1900;48.890;9.190;2022-11-18T15:24:18;15.20;66.00
3770;DHT22;1900;48.890;9.190;2022-11-18T15:26:46;15.20;66.00
3770;DHT22;1900;48.890;9.190;2022-11-18T15:31:42;15.20;66.00
3770;DHT22;1900;48.890;9.190;2022-11-18T15:34:08;15.10;66.00
3770;DHT22;1900;48.890;9.190;2022-11-18T15:36:34;15.10;66.00
3770;DHT22;1900;48.890;9.190;2022-11-18T15:39:01;15.10;66.00
3770;DHT22;1900;48.890;9.190;2022-11-18T15:41:28;15.10;66.00
3770;DHT22;1900;48.890;9.190;2022-11-18T15:43:55;15.10;66.00
3770;DHT22;1900;48.890;9.190;2022-11-18T15:46:23;15.10;66.00
3770;DHT22;1900;48.890;9.190;2022-11-18T15:48:53;15.00;65.80
3770;DHT22;1900;48.890;9.190;2022-11-18T15:51:19;15.00;65.80
3770;DHT22;1900;48.890;9.190;2022-11-18T15:53:45;15.00;65.70
3770;DHT22;1900;48.890;9.190;2022-11-18T15:56:27;15.00;65.70
3770;DHT22;1900;48.890;9.190;2022-11-18T15:58:57;15.00;65.80
3770;DHT22;1900;48.890;9.190;2022-11-18T16:01:24;14.90;65.70
3770;DHT22;1900;48.890;9.190;2022-11-18T16:03:50;14.90;65.70
3770;DHT22;1900;48.890;9.190;2022-11-18T16:06:16;14.90;65.70
3770;DHT22;1900;48.890;9.190;2022-11-18T16:08:42;14.90;65.80
3770;DHT22;1900;48.890;9.190;2022-11-18T16:11:12;14.90;65.80
3770;DHT22;1900;48.890;9.190;2022-11-18T16:14:07;14.90;65.80
3770;DHT22;1900;48.890;9.190;2022-11-18T16:16:35;14.90;65.80
3770;DHT22;1900;48.890;9.190;2022-11-18T16:19:03;14.80;65.80
3770;DHT22;1900;48.890;9.190;2022-11-18T16:21:32;14.80;65.80
3770;DHT22;1900;48.890;9.190;2022-11-18T16:23:59;14.80;65.80
3770;DHT22;1900;48.890;9.190;2022-11-18T16:26:26;14.80;65.80
3770;DHT22;1900;48.890;9.190;2022-11-18T16:28:52;14.80;65.80
3770;DHT22;1900;48.890;9.190;2022-11-18T16:31:19;14.80;65.80
3770;DHT22;1900;48.890;9.190;2022-11-18T16:34:13;14.80;65.80
3770;DHT22;1900;48.890;9.190;2022-11-18T16:36:41;14.80;65.80
3770;DHT22;1900;48.890;9.190;2022-11-18T16:41:33;14.80;65.90
3770;DHT22;1900;48.890;9.190;2022-11-18T16:44:01;14.80;66.50
3770;DHT22;1900;48.890;9.190;2022-11-18T16:46:32;14.70;65.80
3770;DHT22;1900;48.890;9.190;2022-11-18T16:48:58;14.70;65.80
3770;DHT22;1900;48.890;9.190;2022-11-18T16:51:29;14.70;65.70
3770;DHT22;1900;48.890;9.190;2022-11-18T16:53:57;14.70;65.70
3770;DHT22;1900;48.890;9.190;2022-11-18T16:56:25;14.70;65.70
3770;DHT22;1900;48.890;9.190;2022-11-18T16:59:03;14.70;65.70
3770;DHT22;1900;48.890;9.190;2022-11-18T17:01:29;14.70;65.70
3770;DHT22;1900;48.890;9.190;2022-11-18T17:03:56;14.70;65.70
3770;DHT22;1900;48.890;9.190;2022-11-18T17:06:23;14.70;65.70
3770;DHT22;1900;48.890;9.190;2022-11-18T17:08:49;14.70;65.80
3770;DHT22;1900;48.890;9.190;2022-11-18T17:11:15;14.70;65.80
3770;DHT22;1900;48.890;9.190;2022-11-18T17:13:42;14.60;65.70
3770;DHT22;1900;48.890;9.190;2022-11-18T17:16:10;14.60;65.70
3770;DHT22;1900;48.890;9.190;2022-11-18T17:18:36;14.60;65.70
3770;DHT22;1900;48.890;9.190;2022-11-18T17:21:10;14.60;65.60
3770;DHT22;1900;48.890;9.190;2022-11-18T17:23:37;14.60;65.60
3770;DHT22;1900;48.890;9.190;2022-11-18T17:26:04;14.60;65.60
3770;DHT22;1900;48.890;9.190;2022-11-18T17:28:30;14.60;65.60
3770;DHT22;1900;48.890;9.190;2022-11-18T17:30:56;14.60;65.60
3770;DHT22;1900;48.890;9.190;2022-11-18T17:33:22;14.60;65.60
3770;DHT22;1900;48.890;9.190;2022-11-18T17:36:02;14.50;65.40
3770;DHT22;1900;48.890;9.190;2022-11-18T17:38:28;14.60;65.50
3770;DHT22;1900;48.890;9.190;2022-11-18T17:40:55;14.50;65.30
3770;DHT22;1900;48.890;9.190;2022-11-18T17:43:22;14.50;65.30
3770;DHT22;1900;48.890;9.190;2022-11-18T17:45:50;14.50;65.30
3770;DHT22;1900;48.890;9.190;2022-11-18T17:48:16;14.40;65.10
3770;DHT22;1900;48.890;9.190;2022-11-18T17:50:41;14.50;65.20
3770;DHT22;1900;48.890;9.190;2022-11-18T17:53:07;14.40;65.10
3770;DHT22;1900;48.890;9.190;2022-11-18T17:55:33;14.40;65.20
3770;DHT22;1900;48.890;9.190;2022-11-18T17:57:58;14.40;65.20
3770;DHT22;1900;48.890;9.190;2022-11-18T18:00:24;14.40;65.20
3770;DHT22;1900;48.890;9.190;2022-11-18T18:02:50;14.40;65.20
3770;DHT22;1900;48.890;9.190;2022-11-18T18:05:16;14.40;65.20
3770;DHT22;1900;48.890;9.190;2022-11-18T18:07:41;14.30;65.10
3770;DHT22;1900;48.890;9.190;2022-11-18T18:10:07;14.30;65.10
3770;DHT22;1900;48.890;9.190;2022-11-18T18:12:34;14.30;65.20
3770;DHT22;1900;48.890;9.190;2022-11-18T18:15:18;14.30;65.20
3770;DHT22;1900;48.890;9.190;2022-11-18T18:17:47;14.30;65.20
3770;DHT22;1900;48.890;9.190;2022-11-18T18:20:13;14.30;65.20
3770;DHT22;1900;48.890;9.190;2022-11-18T18:22:39;14.20;65.10
3770;DHT22;1900;48.890;9.190;2022-11-18T18:25:05;14.20;65.10
3770;DHT22;1900;48.890;9.190;2022-11-18T18:27:31;14.20;65.10
3770;DHT22;1900;48.890;9.190;2022-11-18T18:29:56;14.30;65.10
3770;DHT22;1900;48.890;9.190;2022-11-18T18:32:23;14.20;65.00
3770;DHT22;1900;48.890;9.190;2022-11-18T18:34:49;14.20;65.00
3770;DHT22;1900;48.890;9.190;2022-11-18T18:37:14;14.20;65.00
3770;DHT22;1900;48.890;9.190;2022-11-18T18:39:40;14.20;65.00
3770;DHT22;1900;48.890;9.190;2022-11-18T18:42:06;14.20;65.10
3770;DHT22;1900;48.890;9.190;2022-11-18T18:44:32;14.20;65.10
3770;DHT22;1900;48.890;9.190;2022-11-18T18:47:16;14.20;65.10